createdAt,value
2023-05-05T00:01:09.381Z,7.40
2023-05-05T00:03:36.260Z,7.33
2023-05-05T00:06:03.138Z,10.70
2023-05-05T00:08:29.946Z,7.30
2023-05-05T00:10:57.561Z,7.13
2023-05-05T00:13:24.645Z,8.97
2023-05-05T00:15:53.416Z,6.50
2023-05-05T00:18:21.026Z,6.13
2023-05-05T00:20:48.072Z,5.87
2023-05-05T00:23:15.553Z,7.43
2023-05-05T00:25:42.000Z,7.40
2023-05-05T00:28:08.662Z,9.87
2023-05-05T00:30:35.129Z,6.77
2023-05-05T00:33:01.946Z,8.47
2023-05-05T00:35:28.493Z,6.47
2023-05-05T00:37:55.226Z,7.13
2023-05-05T00:40:22.008Z,8.83
2023-05-05T00:42:50.811Z,6.33
2023-05-05T00:45:18.890Z,6.53
2023-05-05T00:47:48.593Z,6.40
2023-05-05T00:50:21.322Z,7.77
2023-05-05T00:52:47.990Z,7.70
2023-05-05T00:55:14.546Z,6.70
2023-05-05T00:57:41.092Z,5.90
2023-05-05T01:00:09.904Z,7.07
2023-05-05T01:02:36.767Z,7.80
2023-05-05T01:05:04.080Z,7.80
2023-05-05T01:07:41.470Z,9.40
2023-05-05T01:10:19.599Z,6.33
2023-05-05T01:12:59.806Z,7.17
2023-05-05T01:16:00.962Z,6.80
2023-05-05T01:18:53.846Z,5.80
2023-05-05T01:21:27.453Z,6.63
2023-05-05T01:24:15.364Z,6.90
2023-05-05T01:26:55.403Z,7.60
2023-05-05T01:29:40.798Z,7.50
2023-05-05T01:32:13.173Z,8.40
2023-05-05T01:35:04.692Z,6.63
2023-05-05T01:37:38.412Z,7.20
2023-05-05T01:40:08.363Z,6.77
2023-05-05T01:42:36.521Z,5.80
2023-05-05T01:45:05.054Z,5.97
2023-05-05T01:47:32.076Z,6.70
2023-05-05T01:49:59.205Z,6.97
2023-05-05T01:52:27.025Z,7.10
2023-05-05T01:54:54.225Z,6.40
2023-05-05T01:57:21.696Z,6.90
2023-05-05T01:59:49.681Z,6.70
2023-05-05T02:02:16.739Z,6.20
2023-05-05T02:04:44.488Z,6.80
2023-05-05T02:07:12.781Z,6.60
2023-05-05T02:09:39.509Z,7.00
2023-05-05T02:12:06.859Z,6.40
2023-05-05T02:14:33.876Z,7.07
2023-05-05T02:17:01.394Z,6.80
2023-05-05T02:19:33.046Z,6.07
2023-05-05T02:21:59.681Z,6.87
2023-05-05T02:24:26.534Z,7.27
2023-05-05T02:26:54.600Z,6.87
2023-05-05T02:29:27.910Z,6.70
2023-05-05T02:31:57.087Z,7.07
2023-05-05T02:34:26.530Z,6.83
2023-05-05T02:36:55.824Z,6.83
2023-05-05T02:39:27.847Z,6.93
2023-05-05T02:41:55.441Z,7.20
2023-05-05T02:44:25.060Z,7.00
2023-05-05T02:46:51.934Z,7.10
2023-05-05T02:49:18.475Z,6.37
2023-05-05T02:51:45.118Z,7.87
2023-05-05T02:54:11.829Z,6.67
2023-05-05T02:56:51.478Z,7.20
2023-05-05T02:59:48.613Z,6.50
2023-05-05T03:02:18.576Z,7.33
2023-05-05T03:05:02.777Z,6.33
2023-05-05T03:07:49.616Z,6.80
2023-05-05T03:10:19.723Z,6.87
2023-05-05T03:12:48.341Z,7.03
2023-05-05T03:15:15.333Z,7.47
2023-05-05T03:17:43.237Z,6.83
2023-05-05T03:20:10.589Z,8.07
2023-05-05T03:22:38.041Z,7.20
2023-05-05T03:25:06.231Z,6.30
2023-05-05T03:27:33.203Z,6.00
2023-05-05T03:29:59.743Z,6.67
2023-05-05T03:32:27.225Z,6.10
2023-05-05T03:34:53.788Z,7.23
2023-05-05T03:37:20.387Z,6.70
2023-05-05T03:39:46.952Z,8.00
2023-05-05T03:42:13.506Z,6.80
2023-05-05T03:44:40.166Z,10.97
2023-05-05T03:47:06.846Z,6.60
2023-05-05T03:49:33.386Z,8.40
2023-05-05T03:52:00.099Z,9.43
2023-05-05T03:54:26.667Z,8.07
2023-05-05T03:56:53.213Z,7.70
2023-05-05T03:59:19.853Z,7.90
2023-05-05T04:01:49.074Z,8.27
2023-05-05T04:04:16.470Z,10.03
2023-05-05T04:06:43.085Z,9.30
2023-05-05T04:09:09.733Z,8.50
2023-05-05T04:11:36.264Z,9.10
2023-05-05T04:14:02.777Z,11.33
2023-05-05T04:16:29.406Z,9.60
2023-05-05T04:18:55.962Z,12.90
2023-05-05T04:21:22.427Z,10.23
2023-05-05T04:23:49.268Z,11.03
2023-05-05T04:26:15.923Z,15.23
2023-05-05T04:28:42.859Z,10.07
2023-05-05T04:31:10.457Z,11.77
2023-05-05T04:33:37.032Z,11.43
2023-05-05T04:36:03.759Z,12.13
2023-05-05T04:38:30.359Z,10.60
2023-05-05T04:40:56.943Z,13.23
2023-05-05T04:43:23.532Z,11.53
2023-05-05T04:45:56.630Z,11.77
2023-05-05T04:48:23.230Z,11.27
2023-05-05T04:50:49.765Z,15.40
2023-05-05T04:53:16.337Z,13.37
2023-05-05T04:55:42.849Z,14.97
2023-05-05T04:58:09.458Z,13.97
2023-05-05T05:00:37.407Z,13.17
2023-05-05T05:03:04.640Z,14.37
2023-05-05T05:05:31.220Z,13.27
2023-05-05T05:07:57.825Z,14.80
2023-05-05T05:10:24.500Z,15.13
2023-05-05T05:12:51.088Z,16.07
2023-05-05T05:15:17.982Z,14.33
2023-05-05T05:17:44.723Z,14.43
2023-05-05T05:20:11.704Z,16.30
2023-05-05T05:22:39.225Z,16.57
2023-05-05T05:25:06.264Z,15.87
2023-05-05T05:27:32.847Z,16.70
2023-05-05T05:29:59.646Z,14.03
2023-05-05T05:32:26.412Z,16.50
2023-05-05T05:34:53.088Z,17.43
2023-05-05T05:37:20.208Z,20.93
2023-05-05T05:39:53.135Z,16.67
2023-05-05T05:42:20.041Z,17.80
2023-05-05T05:44:46.680Z,21.60
2023-05-05T05:47:13.439Z,17.13
2023-05-05T05:49:39.966Z,18.30
2023-05-05T05:52:06.485Z,16.07
2023-05-05T05:54:35.497Z,17.20
2023-05-05T05:57:02.569Z,16.40
2023-05-05T05:59:29.131Z,15.73
2023-05-05T06:01:56.319Z,16.80
2023-05-05T06:04:23.066Z,18.10
2023-05-05T06:06:49.802Z,18.13
2023-05-05T06:09:16.493Z,18.10
2023-05-05T06:11:43.104Z,17.17
2023-05-05T06:14:09.767Z,15.80
2023-05-05T06:16:36.381Z,20.40
2023-05-05T06:19:03.228Z,18.40
2023-05-05T06:21:29.713Z,17.40
2023-05-05T06:23:56.631Z,18.00
2023-05-05T06:26:23.391Z,18.40
2023-05-05T06:28:50.451Z,20.73
2023-05-05T06:31:17.455Z,24.87
2023-05-05T06:33:44.285Z,23.73
2023-05-05T06:36:10.935Z,22.27
2023-05-05T06:38:37.769Z,20.07
2023-05-05T06:41:04.693Z,21.03
2023-05-05T06:43:31.397Z,20.73
2023-05-05T06:45:57.986Z,18.80
2023-05-05T06:48:24.764Z,18.40
2023-05-05T06:50:51.456Z,17.77
2023-05-05T06:53:18.320Z,17.40
2023-05-05T06:55:46.801Z,20.70
2023-05-05T06:58:13.550Z,20.40
2023-05-05T07:00:40.838Z,17.63
2023-05-05T07:03:07.992Z,16.73
2023-05-05T07:05:34.856Z,19.00
2023-05-05T07:08:01.669Z,16.53
2023-05-05T07:10:28.598Z,14.00
2023-05-05T07:12:55.508Z,14.40
2023-05-05T07:15:28.758Z,16.17
2023-05-05T07:17:57.003Z,17.13
2023-05-05T07:20:24.262Z,12.10
2023-05-05T07:22:51.506Z,12.63
2023-05-05T07:25:18.164Z,12.20
2023-05-05T07:27:45.046Z,13.37
2023-05-05T07:30:16.268Z,11.40
2023-05-05T07:32:45.049Z,11.07
2023-05-05T07:35:11.923Z,11.83
2023-05-05T07:37:38.588Z,10.70
2023-05-05T07:40:06.095Z,10.70
2023-05-05T07:42:32.814Z,10.60
2023-05-05T07:44:59.351Z,10.33
2023-05-05T07:47:25.994Z,10.53
2023-05-05T07:49:52.664Z,10.47
2023-05-05T07:52:21.460Z,11.73
2023-05-05T07:54:51.934Z,11.40
2023-05-05T07:57:18.627Z,13.20
2023-05-05T07:59:45.320Z,11.20
2023-05-05T08:02:12.958Z,11.50
2023-05-05T08:04:40.346Z,10.60
2023-05-05T08:07:08.151Z,11.30
2023-05-05T08:09:35.770Z,10.60
2023-05-05T08:12:03.464Z,11.23
2023-05-05T08:14:30.540Z,10.83
2023-05-05T08:16:57.318Z,11.33
2023-05-05T08:19:29.362Z,18.93
2023-05-05T08:21:56.357Z,11.60
2023-05-05T08:24:22.859Z,12.53
2023-05-05T08:26:49.485Z,11.80
2023-05-05T08:29:16.088Z,13.07
2023-05-05T08:31:42.687Z,10.20
2023-05-05T08:34:09.188Z,15.63
2023-05-05T08:36:35.845Z,9.60
2023-05-05T08:39:02.574Z,10.57
2023-05-05T08:41:29.048Z,10.17
2023-05-05T08:43:55.888Z,10.07
2023-05-05T08:46:23.775Z,9.83
2023-05-05T08:48:52.839Z,11.30
2023-05-05T08:51:20.159Z,12.03
2023-05-05T08:54:03.327Z,10.60
2023-05-05T08:56:33.687Z,9.40
2023-05-05T08:59:03.690Z,12.23
2023-05-05T09:01:32.850Z,11.03
2023-05-05T09:03:59.921Z,11.50
2023-05-05T09:06:27.451Z,9.80
2023-05-05T09:08:54.428Z,11.63
2023-05-05T09:11:22.611Z,11.23
2023-05-05T09:13:49.769Z,11.23
2023-05-05T09:16:16.420Z,10.33
2023-05-05T09:18:43.079Z,9.90
2023-05-05T09:21:24.797Z,8.50
2023-05-05T09:24:08.381Z,9.93
2023-05-05T09:26:37.648Z,10.37
2023-05-05T09:29:05.109Z,9.60
2023-05-05T09:31:32.905Z,8.70
2023-05-05T09:34:04.204Z,8.67
2023-05-05T09:36:50.064Z,9.87
2023-05-05T09:39:18.384Z,10.10
2023-05-05T09:41:45.166Z,9.33
2023-05-05T09:44:12.593Z,8.10
2023-05-05T09:46:51.109Z,9.57
2023-05-05T09:49:26.663Z,9.70
2023-05-05T09:51:54.291Z,8.87
2023-05-05T09:54:25.053Z,9.67
2023-05-05T09:56:52.388Z,8.60
2023-05-05T09:59:19.595Z,8.30
2023-05-05T10:01:46.696Z,9.57
2023-05-05T10:04:24.828Z,10.23
2023-05-05T10:06:52.579Z,9.10
2023-05-05T10:09:19.197Z,8.77
2023-05-05T10:11:47.292Z,9.50
2023-05-05T10:14:17.938Z,6.50
2023-05-05T10:16:50.939Z,8.33
2023-05-05T10:19:23.853Z,6.67
2023-05-05T10:21:54.269Z,6.80
2023-05-05T10:24:29.383Z,8.97
2023-05-05T10:26:58.379Z,7.50
2023-05-05T10:29:40.051Z,7.43
2023-05-05T10:32:46.670Z,7.17
2023-05-05T10:35:10.964Z,6.50
2023-05-05T10:37:38.503Z,6.83
2023-05-05T10:40:06.163Z,6.00
2023-05-05T10:42:33.104Z,7.60
2023-05-05T10:44:59.770Z,8.50
2023-05-05T10:47:27.393Z,6.60
2023-05-05T10:50:06.909Z,5.47
2023-05-05T10:52:37.050Z,8.70
2023-05-05T10:55:15.214Z,6.90
2023-05-05T10:57:44.456Z,6.67
2023-05-05T11:00:36.948Z,5.53
2023-05-05T11:03:18.871Z,6.43
2023-05-05T11:06:03.954Z,4.57
2023-05-05T11:08:38.775Z,4.90
2023-05-05T11:11:06.088Z,4.63
2023-05-05T11:13:32.902Z,5.13
2023-05-05T11:16:00.792Z,4.97
2023-05-05T11:18:36.427Z,3.83
2023-05-05T11:21:15.646Z,4.70
2023-05-05T11:23:50.344Z,4.60
2023-05-05T11:26:19.297Z,4.83
2023-05-05T11:28:56.371Z,5.37
2023-05-05T11:31:22.963Z,5.67
2023-05-05T11:33:49.873Z,5.13
2023-05-05T11:36:18.004Z,5.83
2023-05-05T11:38:53.885Z,5.00
2023-05-05T11:41:32.652Z,6.50
2023-05-05T11:44:29.727Z,4.47
2023-05-05T11:46:56.290Z,7.77
2023-05-05T11:49:38.611Z,4.00
2023-05-05T11:52:06.112Z,4.37
2023-05-05T11:54:34.482Z,5.47
2023-05-05T11:57:08.490Z,4.17
2023-05-05T11:59:37.162Z,4.27
2023-05-05T12:02:04.554Z,4.80
2023-05-05T12:04:31.660Z,4.20
2023-05-05T12:06:59.030Z,4.27
2023-05-05T12:09:25.666Z,4.40
2023-05-05T12:11:56.105Z,4.37
2023-05-05T12:14:24.660Z,4.67
2023-05-05T12:17:01.430Z,4.77
2023-05-05T12:19:30.298Z,8.03
2023-05-05T12:21:57.172Z,4.97
2023-05-05T12:24:23.960Z,5.80
2023-05-05T12:26:50.605Z,4.83
2023-05-05T12:29:35.143Z,5.17
2023-05-05T12:32:01.842Z,5.67
2023-05-05T12:34:28.508Z,5.53
2023-05-05T12:36:55.274Z,5.37
2023-05-05T12:39:22.365Z,5.00
2023-05-05T12:41:49.213Z,5.13
2023-05-05T12:44:16.041Z,4.83
2023-05-05T12:46:46.904Z,4.50
2023-05-05T12:49:13.481Z,5.73
2023-05-05T12:51:55.700Z,4.93
2023-05-05T12:54:29.422Z,4.80
2023-05-05T12:56:57.383Z,4.60
2023-05-05T12:59:24.159Z,5.17
2023-05-05T13:01:54.553Z,5.03
2023-05-05T13:04:25.120Z,5.40
2023-05-05T13:07:14.673Z,4.90
2023-05-05T13:09:41.700Z,6.47
2023-05-05T13:12:11.574Z,5.10
2023-05-05T13:14:38.639Z,6.90
2023-05-05T13:17:05.460Z,5.87
2023-05-05T13:19:32.005Z,6.30
2023-05-05T13:21:58.931Z,7.57
2023-05-05T13:24:38.082Z,10.30
2023-05-05T13:27:12.580Z,11.00
2023-05-05T13:29:40.048Z,12.63
2023-05-05T13:32:06.623Z,11.33
2023-05-05T13:34:36.060Z,11.30
2023-05-05T13:37:02.617Z,14.60
2023-05-05T13:39:29.598Z,10.87
2023-05-05T13:41:56.119Z,12.40
2023-05-05T13:44:22.696Z,12.17
2023-05-05T13:46:49.339Z,12.03
2023-05-05T13:49:16.038Z,10.83
2023-05-05T13:51:43.148Z,11.87
2023-05-05T13:54:10.434Z,9.87
2023-05-05T13:56:37.058Z,14.63
2023-05-05T13:59:04.061Z,11.33
2023-05-05T14:01:30.858Z,12.57
2023-05-05T14:03:58.072Z,10.90
2023-05-05T14:06:26.459Z,10.23
2023-05-05T14:08:53.300Z,10.10
2023-05-05T14:11:20.750Z,10.33
2023-05-05T14:13:47.548Z,11.50
2023-05-05T14:16:14.144Z,10.93
2023-05-05T14:18:41.021Z,10.20
2023-05-05T14:21:07.647Z,11.10
2023-05-05T14:23:34.286Z,11.57
2023-05-05T14:26:00.978Z,7.97
2023-05-05T14:28:27.558Z,8.33
2023-05-05T14:30:54.218Z,7.03
2023-05-05T14:33:22.081Z,7.53
2023-05-05T14:35:48.761Z,7.77
2023-05-05T14:38:15.586Z,8.53
2023-05-05T14:40:42.200Z,7.77
2023-05-05T14:43:08.735Z,6.53
2023-05-05T14:45:35.349Z,6.63
2023-05-05T14:48:02.510Z,6.90
2023-05-05T14:50:29.231Z,8.00
2023-05-05T14:52:55.764Z,8.13
2023-05-05T14:55:22.336Z,7.47
2023-05-05T14:57:48.765Z,7.53
2023-05-05T15:00:15.612Z,7.37
2023-05-05T15:02:42.304Z,7.80
2023-05-05T15:05:09.338Z,7.73
2023-05-05T15:07:35.939Z,7.67
2023-05-05T15:10:02.852Z,8.00
2023-05-05T15:12:29.398Z,7.00
2023-05-05T15:14:55.993Z,6.00
2023-05-05T15:17:22.866Z,6.43
2023-05-05T15:19:49.738Z,8.57
2023-05-05T15:22:16.368Z,7.17
2023-05-05T15:24:42.910Z,7.50
2023-05-05T15:27:09.466Z,7.43
2023-05-05T15:29:36.128Z,8.00
2023-05-05T15:32:02.753Z,8.00
2023-05-05T15:34:29.488Z,7.60
2023-05-05T15:36:56.084Z,8.90
2023-05-05T15:39:22.714Z,8.70
2023-05-05T15:41:49.307Z,8.67
2023-05-05T15:44:16.022Z,8.87
2023-05-05T15:46:42.602Z,9.23
2023-05-05T15:49:09.201Z,8.53
2023-05-05T15:51:35.841Z,8.60
2023-05-05T15:54:02.443Z,7.70
2023-05-05T15:56:29.494Z,6.97
2023-05-05T15:58:56.706Z,6.93
2023-05-05T16:01:23.652Z,8.23
2023-05-05T16:03:50.331Z,7.03
2023-05-05T16:06:16.901Z,7.40
2023-05-05T16:08:43.922Z,7.80
2023-05-05T16:11:10.756Z,9.00
2023-05-05T16:13:39.120Z,8.43
2023-05-05T16:16:06.833Z,7.73
2023-05-05T16:18:33.650Z,10.43
2023-05-05T16:21:00.751Z,9.40
2023-05-05T16:23:27.330Z,6.40
2023-05-05T16:25:54.091Z,6.80
2023-05-05T16:28:20.829Z,4.40
2023-05-05T16:30:47.675Z,4.23
2023-05-05T16:33:14.211Z,4.20
2023-05-05T16:35:44.189Z,3.90
2023-05-05T16:38:10.817Z,4.60
2023-05-05T16:40:37.890Z,8.90
2023-05-05T16:43:04.456Z,6.63
2023-05-05T16:45:31.338Z,5.50
2023-05-05T16:47:57.919Z,6.00
2023-05-05T16:50:24.563Z,5.17
2023-05-05T16:52:51.410Z,6.03
2023-05-05T16:55:18.043Z,6.37
2023-05-05T16:57:44.552Z,8.23
2023-05-05T17:00:12.168Z,6.97
2023-05-05T17:02:38.710Z,7.17
2023-05-05T17:05:06.055Z,6.97
2023-05-05T17:07:32.803Z,17.57
2023-05-05T17:09:59.516Z,9.40
2023-05-05T17:12:26.160Z,7.17
2023-05-05T17:14:52.826Z,7.87
2023-05-05T17:17:19.616Z,6.90
2023-05-05T17:19:46.244Z,6.83
2023-05-05T17:22:13.091Z,6.37
2023-05-05T17:24:39.695Z,6.57
2023-05-05T17:27:06.734Z,7.03
2023-05-05T17:29:36.766Z,5.63
2023-05-05T17:32:03.525Z,6.60
2023-05-05T17:34:30.142Z,8.03
2023-05-05T17:36:57.047Z,6.17
2023-05-05T17:39:23.527Z,6.43
2023-05-05T17:41:51.291Z,6.77
2023-05-05T17:44:17.837Z,6.33
2023-05-05T17:46:44.623Z,6.53
2023-05-05T17:49:11.255Z,7.20
2023-05-05T17:51:37.965Z,4.77
2023-05-05T17:54:04.773Z,5.17
2023-05-05T17:56:31.500Z,6.93
2023-05-05T17:58:58.068Z,11.67
2023-05-05T18:01:26.559Z,8.43
2023-05-05T18:03:53.462Z,9.13
2023-05-05T18:06:20.214Z,7.07
2023-05-05T18:08:46.759Z,11.40
2023-05-05T18:11:13.347Z,6.83
2023-05-05T18:13:39.927Z,12.97
2023-05-05T18:16:06.909Z,7.00
2023-05-05T18:18:33.785Z,7.00
2023-05-05T18:21:00.553Z,7.10
2023-05-05T18:23:27.843Z,6.67
2023-05-05T18:25:54.482Z,6.63
2023-05-05T18:28:21.444Z,6.70
2023-05-05T18:30:48.051Z,7.90
2023-05-05T18:33:14.815Z,8.03
2023-05-05T18:35:41.467Z,7.80
2023-05-05T18:38:08.032Z,6.70
2023-05-05T18:40:34.642Z,9.10
2023-05-05T18:43:01.506Z,9.50
2023-05-05T18:45:28.074Z,7.10
2023-05-05T18:47:56.418Z,6.20
2023-05-05T18:50:23.250Z,6.67
2023-05-05T18:52:49.810Z,12.80
2023-05-05T18:55:16.306Z,12.10
2023-05-05T18:57:43.067Z,19.27
2023-05-05T19:00:10.340Z,25.43
2023-05-05T19:02:37.148Z,22.43
2023-05-05T19:05:04.010Z,7.93
2023-05-05T19:07:35.381Z,11.90
2023-05-05T19:10:04.408Z,15.97
2023-05-05T19:12:31.323Z,12.07
2023-05-05T19:14:57.891Z,7.77
2023-05-05T19:17:24.621Z,7.80
2023-05-05T19:19:51.521Z,8.53
2023-05-05T19:22:18.131Z,7.50
2023-05-05T19:24:44.759Z,7.10
2023-05-05T19:27:15.445Z,6.50
2023-05-05T19:29:42.852Z,6.90
2023-05-05T19:32:09.624Z,7.13
2023-05-05T19:34:36.306Z,7.27
2023-05-05T19:37:02.857Z,7.13
2023-05-05T19:39:29.586Z,8.40
2023-05-05T19:41:56.158Z,7.50
2023-05-05T19:44:22.917Z,8.40
2023-05-05T19:46:49.469Z,7.30
2023-05-05T19:49:16.407Z,9.20
2023-05-05T19:51:43.756Z,8.43
2023-05-05T19:54:10.634Z,8.73
2023-05-05T19:56:37.320Z,8.93
2023-05-05T19:59:06.370Z,9.53
2023-05-05T20:01:33.893Z,8.70
2023-05-05T20:04:01.081Z,9.27
2023-05-05T20:06:27.668Z,11.60
2023-05-05T20:08:55.364Z,14.70
2023-05-05T20:11:22.259Z,13.30
2023-05-05T20:13:49.898Z,11.63
2023-05-05T20:16:16.652Z,12.53
2023-05-05T20:18:43.913Z,13.53
2023-05-05T20:21:10.633Z,13.23
2023-05-05T20:23:37.580Z,12.23
2023-05-05T20:26:04.288Z,14.13
2023-05-05T20:28:34.381Z,12.03
2023-05-05T20:31:01.272Z,11.33
2023-05-05T20:33:28.648Z,12.10
2023-05-05T20:35:55.279Z,11.57
2023-05-05T20:38:21.863Z,12.83
2023-05-05T20:40:48.408Z,13.60
2023-05-05T20:43:15.027Z,14.10
2023-05-05T20:45:42.056Z,14.57
2023-05-05T20:48:11.231Z,15.77
2023-05-05T20:50:39.048Z,15.17
2023-05-05T20:53:07.960Z,14.63
2023-05-05T20:55:34.918Z,14.40
2023-05-05T20:58:01.562Z,15.47
2023-05-05T21:00:28.325Z,15.93
2023-05-05T21:02:56.890Z,15.40
2023-05-05T21:05:24.261Z,17.00
2023-05-05T21:07:53.358Z,16.30
2023-05-05T21:10:20.705Z,18.10
2023-05-05T21:12:47.275Z,18.60
2023-05-05T21:15:14.151Z,19.37
2023-05-05T21:17:40.832Z,19.07
2023-05-05T21:20:08.537Z,26.67
2023-05-05T21:22:35.431Z,34.13
2023-05-05T21:25:19.303Z,28.97
2023-05-05T21:27:47.394Z,29.17
2023-05-05T21:30:14.268Z,34.27
2023-05-05T21:32:41.512Z,42.00
2023-05-05T21:35:08.900Z,36.83
2023-05-05T21:37:38.821Z,33.20
2023-05-05T21:40:09.296Z,34.67
2023-05-05T21:42:36.416Z,35.23
2023-05-05T21:45:03.174Z,35.27
2023-05-05T21:47:30.045Z,30.00
2023-05-05T21:49:58.074Z,28.87
2023-05-05T21:52:24.966Z,26.47
2023-05-05T21:54:51.474Z,23.37
2023-05-05T21:57:18.293Z,22.87
2023-05-05T21:59:44.844Z,25.30
2023-05-05T22:02:11.641Z,22.47
2023-05-05T22:04:38.128Z,24.60
2023-05-05T22:07:05.028Z,20.00
2023-05-05T22:09:31.591Z,22.70
2023-05-05T22:11:58.396Z,36.77
2023-05-05T22:14:25.092Z,24.37
2023-05-05T22:16:51.787Z,24.57
2023-05-05T22:19:18.340Z,37.77
2023-05-05T22:21:45.068Z,67.60
2023-05-05T22:24:11.610Z,25.87
2023-05-05T22:26:42.913Z,32.33
2023-05-05T22:29:10.638Z,39.37
2023-05-05T22:31:37.451Z,28.73
2023-05-05T22:34:04.155Z,30.77
2023-05-05T22:36:31.451Z,21.60
2023-05-05T22:38:58.206Z,28.33
2023-05-05T22:41:24.936Z,36.53
2023-05-05T22:43:51.634Z,25.20
2023-05-05T22:46:18.242Z,28.70
2023-05-05T22:48:44.861Z,29.17
2023-05-05T22:51:11.448Z,26.77
2023-05-05T22:53:38.649Z,22.37
2023-05-05T22:56:06.256Z,23.80
2023-05-05T22:58:32.830Z,25.40
2023-05-05T23:00:59.630Z,23.63
2023-05-05T23:03:26.683Z,21.07
2023-05-05T23:05:53.203Z,18.47
2023-05-05T23:08:20.507Z,19.50
2023-05-05T23:10:47.040Z,16.43
2023-05-05T23:13:13.553Z,13.37
2023-05-05T23:15:41.198Z,15.87
2023-05-05T23:18:07.935Z,13.80
2023-05-05T23:20:34.557Z,13.73
2023-05-05T23:23:01.252Z,15.40
2023-05-05T23:25:27.804Z,17.43
2023-05-05T23:27:54.394Z,16.33
2023-05-05T23:30:21.203Z,15.53
2023-05-05T23:32:48.080Z,16.40
2023-05-05T23:35:14.616Z,17.40
2023-05-05T23:37:41.364Z,17.03
2023-05-05T23:40:08.601Z,21.13
2023-05-05T23:42:35.414Z,59.40
2023-05-05T23:45:01.939Z,19.47
2023-05-05T23:47:28.673Z,25.13
2023-05-05T23:49:55.286Z,16.10
2023-05-05T23:52:22.521Z,15.97
2023-05-05T23:54:49.311Z,15.40
2023-05-05T23:57:16.040Z,16.27
2023-05-05T23:59:42.557Z,16.17
